WMT678 LICC-LIPZ
Flight info
| Callsign | WMT678 |
|---|---|
| Flight time | 1h 22m |
| Altitude | 36000 |
| Route | BUDIN DCT DIRED DCT ALAXI DCT GENGI DCT DIPVO DCT SUKOM Q125 NIMUM Z43 OTGIG |
| Aircraft | A321/M-SDE1E2E3FGIJ1J4RWXY/LB1 |
Departure
| Time | 2026-05-05 20:13 |
|---|---|
| Airport | Catania-Fontanarossa Airport (LICC) |
Arrival
| Time | 2026-05-05 21:35 |
|---|---|
| Airport | Venice Marco Polo Airport (LIPZ) |
| Time | Latitude | Longitude | Altitude | Speed | Heading |
|---|---|---|---|---|---|
| 2026-05-05 19:17 | 37.46936 | 15.06864 | 51 ft | 0 kts | 354° |
| 2026-05-05 20:02 | 37.46930 | 15.06865 | 51 ft | 4 kts | 352° |
| 2026-05-05 20:02 | 37.46904 | 15.06872 | 51 ft | 4 kts | 335° |
| 2026-05-05 20:02 | 37.46882 | 15.06890 | 46 ft | 4 kts | 310° |
| 2026-05-05 20:03 | 37.46869 | 15.06918 | 51 ft | 4 kts | 276° |
| 2026-05-05 20:03 | 37.46869 | 15.06932 | 51 ft | 0 kts | 264° |
| 2026-05-05 20:07 | 37.46869 | 15.06931 | 51 ft | 1 kts | 264° |
| 2026-05-05 20:08 | 37.46866 | 15.06902 | 51 ft | 5 kts | 264° |
| 2026-05-05 20:08 | 37.46862 | 15.06853 | 51 ft | 6 kts | 264° |
| 2026-05-05 20:08 | 37.46857 | 15.06790 | 51 ft | 8 kts | 264° |
| 2026-05-05 20:08 | 37.46851 | 15.06715 | 49 ft | 9 kts | 264° |
| 2026-05-05 20:09 | 37.46843 | 15.06629 | 51 ft | 11 kts | 264° |
| 2026-05-05 20:09 | 37.46835 | 15.06532 | 51 ft | 12 kts | 264° |
| 2026-05-05 20:09 | 37.46823 | 15.06426 | 51 ft | 13 kts | 263° |
| 2026-05-05 20:09 | 37.46810 | 15.06310 | 51 ft | 14 kts | 261° |
| 2026-05-05 20:10 | 37.46805 | 15.06184 | 51 ft | 15 kts | 267° |
| 2026-05-05 20:10 | 37.46794 | 15.06049 | 51 ft | 16 kts | 264° |
| 2026-05-05 20:10 | 37.46782 | 15.05903 | 51 ft | 17 kts | 264° |
| 2026-05-05 20:10 | 37.46769 | 15.05746 | 51 ft | 19 kts | 264° |
| 2026-05-05 20:11 | 37.46757 | 15.05597 | 51 ft | 15 kts | 264° |
| 2026-05-05 20:11 | 37.46748 | 15.05485 | 49 ft | 13 kts | 264° |
| 2026-05-05 20:11 | 37.46737 | 15.05368 | 51 ft | 14 kts | 261° |
| 2026-05-05 20:11 | 37.46681 | 15.05267 | 50 ft | 15 kts | 223° |
| 2026-05-05 20:12 | 37.46604 | 15.05193 | 51 ft | 11 kts | 195° |
| 2026-05-05 20:12 | 37.46564 | 15.05253 | 51 ft | 11 kts | 90° |
| 2026-05-05 20:12 | 37.46566 | 15.05301 | 51 ft | 2 kts | 84° |
| 2026-05-05 20:12 | 37.46569 | 15.05338 | 48 ft | 12 kts | 84° |
| 2026-05-05 20:13 | 37.46605 | 15.05773 | 50 ft | 88 kts | 83° |
| 2026-05-05 20:13 | 37.46698 | 15.06840 | 53 ft | 151 kts | 83° |
| 2026-05-05 20:13 | 37.46816 | 15.08244 | 576 ft | 160 kts | 83° |
| 2026-05-05 20:13 | 37.46947 | 15.09628 | 1334 ft | 158 kts | 81° |
| 2026-05-05 20:14 | 37.47129 | 15.11000 | 1950 ft | 159 kts | 80° |
| 2026-05-05 20:14 | 37.47319 | 15.12348 | 2537 ft | 159 kts | 80° |
| 2026-05-05 20:14 | 37.47514 | 15.13719 | 3115 ft | 159 kts | 80° |
| 2026-05-05 20:14 | 37.47715 | 15.15133 | 3518 ft | 174 kts | 81° |
| 2026-05-05 20:15 | 37.47937 | 15.16722 | 3774 ft | 195 kts | 81° |
| 2026-05-05 20:15 | 37.48184 | 15.18500 | 3992 ft | 217 kts | 81° |
| 2026-05-05 20:15 | 37.48458 | 15.20471 | 4147 ft | 241 kts | 80° |
| 2026-05-05 20:15 | 37.48761 | 15.22633 | 4615 ft | 256 kts | 80° |
| 2026-05-05 20:16 | 37.49073 | 15.24852 | 5385 ft | 259 kts | 81° |
| 2026-05-05 20:16 | 37.49529 | 15.27067 | 6111 ft | 265 kts | 68° |
| 2026-05-05 20:16 | 37.50477 | 15.29080 | 6788 ft | 273 kts | 50° |
| 2026-05-05 20:16 | 37.51907 | 15.30705 | 7334 ft | 282 kts | 31° |
| 2026-05-05 20:17 | 37.53591 | 15.32008 | 8008 ft | 287 kts | 30° |
| 2026-05-05 20:17 | 37.55304 | 15.33337 | 8731 ft | 290 kts | 30° |
| 2026-05-05 20:17 | 37.57033 | 15.34688 | 9475 ft | 294 kts | 30° |
| 2026-05-05 20:17 | 37.58783 | 15.36057 | 10178 ft | 299 kts | 30° |
| 2026-05-05 20:18 | 37.60605 | 15.37483 | 10465 ft | 319 kts | 30° |
| 2026-05-05 20:18 | 37.62553 | 15.39007 | 10686 ft | 339 kts | 30° |
| 2026-05-05 20:18 | 37.64583 | 15.40598 | 11235 ft | 347 kts | 30° |
| 2026-05-05 20:18 | 37.66644 | 15.42219 | 11858 ft | 351 kts | 30° |
| 2026-05-05 20:19 | 37.68793 | 15.43717 | 12514 ft | 354 kts | 20° |
| 2026-05-05 20:19 | 37.71147 | 15.44584 | 13161 ft | 353 kts | 6° |
| 2026-05-05 20:19 | 37.73595 | 15.44732 | 13808 ft | 353 kts | 352° |
| 2026-05-05 20:19 | 37.75992 | 15.44159 | 14386 ft | 352 kts | 339° |
| 2026-05-05 20:20 | 37.78285 | 15.43048 | 14985 ft | 353 kts | 335° |
| 2026-05-05 20:20 | 37.80579 | 15.41893 | 15603 ft | 356 kts | 335° |
| 2026-05-05 20:20 | 37.82889 | 15.40728 | 16218 ft | 359 kts | 335° |
| 2026-05-05 20:20 | 37.85193 | 15.39570 | 16814 ft | 363 kts | 335° |
| 2026-05-05 20:21 | 37.87580 | 15.38373 | 17430 ft | 366 kts | 335° |
| 2026-05-05 20:21 | 37.89957 | 15.37180 | 18002 ft | 370 kts | 335° |
| 2026-05-05 20:21 | 37.92362 | 15.35973 | 18551 ft | 373 kts | 335° |
| 2026-05-05 20:21 | 37.94781 | 15.34762 | 19063 ft | 376 kts | 335° |
| 2026-05-05 20:22 | 37.97218 | 15.33543 | 19604 ft | 378 kts | 335° |
| 2026-05-05 20:22 | 37.99668 | 15.32313 | 20145 ft | 379 kts | 335° |
| 2026-05-05 20:22 | 38.02127 | 15.31077 | 20710 ft | 381 kts | 335° |
| 2026-05-05 20:22 | 38.04599 | 15.29834 | 21238 ft | 384 kts | 335° |
| 2026-05-05 20:23 | 38.07087 | 15.28580 | 21806 ft | 386 kts | 335° |
| 2026-05-05 20:23 | 38.09563 | 15.27331 | 22292 ft | 390 kts | 335° |
| 2026-05-05 20:23 | 38.12096 | 15.26053 | 22853 ft | 393 kts | 335° |
| 2026-05-05 20:23 | 38.14636 | 15.24771 | 23407 ft | 394 kts | 335° |
| 2026-05-05 20:24 | 38.17197 | 15.23474 | 23876 ft | 397 kts | 335° |
| 2026-05-05 20:24 | 38.19770 | 15.22169 | 24274 ft | 400 kts | 335° |
| 2026-05-05 20:24 | 38.22359 | 15.20856 | 24654 ft | 402 kts | 335° |
| 2026-05-05 20:24 | 38.24960 | 15.19537 | 25039 ft | 404 kts | 335° |
| 2026-05-05 20:25 | 38.27585 | 15.18208 | 25436 ft | 407 kts | 335° |
| 2026-05-05 20:25 | 38.30222 | 15.16873 | 25820 ft | 409 kts | 335° |
| 2026-05-05 20:25 | 38.32874 | 15.15526 | 26202 ft | 411 kts | 335° |
| 2026-05-05 20:25 | 38.35538 | 15.14170 | 26576 ft | 414 kts | 335° |
| 2026-05-05 20:26 | 38.38218 | 15.12806 | 26976 ft | 415 kts | 335° |
| 2026-05-05 20:26 | 38.40911 | 15.11437 | 27370 ft | 417 kts | 335° |
| 2026-05-05 20:26 | 38.43607 | 15.10064 | 27737 ft | 419 kts | 335° |
| 2026-05-05 20:26 | 38.46323 | 15.08681 | 28103 ft | 422 kts | 335° |
| 2026-05-05 20:27 | 38.49056 | 15.07289 | 28482 ft | 423 kts | 335° |
| 2026-05-05 20:27 | 38.51797 | 15.05887 | 28845 ft | 425 kts | 334° |
| 2026-05-05 20:27 | 38.54547 | 15.04478 | 29192 ft | 427 kts | 335° |
| 2026-05-05 20:27 | 38.57312 | 15.03064 | 29530 ft | 429 kts | 335° |
| 2026-05-05 20:28 | 38.60097 | 15.01639 | 29875 ft | 432 kts | 335° |
| 2026-05-05 20:28 | 38.62890 | 15.00209 | 30209 ft | 433 kts | 334° |
| 2026-05-05 20:28 | 38.65688 | 14.98777 | 30504 ft | 434 kts | 334° |
| 2026-05-05 20:28 | 38.68498 | 14.97338 | 30786 ft | 436 kts | 334° |
| 2026-05-05 20:29 | 38.71323 | 14.95887 | 31081 ft | 438 kts | 334° |
| 2026-05-05 20:29 | 38.74154 | 14.94430 | 31387 ft | 439 kts | 334° |
| 2026-05-05 20:29 | 38.76988 | 14.92969 | 31714 ft | 440 kts | 334° |
| 2026-05-05 20:29 | 38.79825 | 14.91505 | 32084 ft | 440 kts | 334° |
| 2026-05-05 20:30 | 38.82664 | 14.90039 | 32424 ft | 440 kts | 334° |
| 2026-05-05 20:30 | 38.85502 | 14.88574 | 32814 ft | 439 kts | 334° |
| 2026-05-05 20:30 | 38.88328 | 14.87116 | 33221 ft | 437 kts | 334° |
| 2026-05-05 20:30 | 38.91149 | 14.85660 | 33634 ft | 436 kts | 334° |
| 2026-05-05 20:31 | 38.93957 | 14.84211 | 34014 ft | 435 kts | 334° |
| 2026-05-05 20:31 | 38.96762 | 14.82760 | 34351 ft | 434 kts | 334° |
| 2026-05-05 20:31 | 38.99524 | 14.81330 | 34657 ft | 434 kts | 334° |
| 2026-05-05 20:31 | 39.02319 | 14.79881 | 34965 ft | 433 kts | 334° |
| 2026-05-05 20:32 | 39.05113 | 14.78435 | 35272 ft | 433 kts | 334° |
| 2026-05-05 20:32 | 39.07902 | 14.76986 | 35578 ft | 432 kts | 334° |
| 2026-05-05 20:32 | 39.10691 | 14.75531 | 35883 ft | 433 kts | 334° |
| 2026-05-05 20:32 | 39.13489 | 14.74072 | 36037 ft | 433 kts | 334° |
| 2026-05-05 20:33 | 39.16269 | 14.72624 | 36072 ft | 431 kts | 334° |
| 2026-05-05 20:33 | 39.21821 | 14.69731 | 36076 ft | 429 kts | 334° |
| 2026-05-05 20:34 | 39.27362 | 14.66841 | 36074 ft | 429 kts | 334° |
| 2026-05-05 20:34 | 39.31966 | 14.64438 | 36074 ft | 429 kts | 334° |
| 2026-05-05 20:35 | 39.37510 | 14.61532 | 36086 ft | 431 kts | 334° |
| 2026-05-05 20:35 | 39.43065 | 14.58612 | 36091 ft | 431 kts | 334° |
| 2026-05-05 20:36 | 39.48616 | 14.55696 | 36094 ft | 430 kts | 334° |
| 2026-05-05 20:36 | 39.54165 | 14.52777 | 36094 ft | 430 kts | 334° |
| 2026-05-05 20:37 | 39.59708 | 14.49864 | 36107 ft | 430 kts | 334° |
| 2026-05-05 20:37 | 39.65255 | 14.46983 | 36102 ft | 429 kts | 334° |
| 2026-05-05 20:38 | 39.70801 | 14.44103 | 36099 ft | 429 kts | 334° |
| 2026-05-05 20:38 | 39.76328 | 14.41214 | 36101 ft | 429 kts | 334° |
| 2026-05-05 20:39 | 39.81867 | 14.38316 | 36099 ft | 429 kts | 334° |
| 2026-05-05 20:39 | 39.87403 | 14.35417 | 36099 ft | 429 kts | 334° |
| 2026-05-05 20:40 | 39.92935 | 14.32509 | 36096 ft | 429 kts | 334° |
| 2026-05-05 20:40 | 39.98471 | 14.29576 | 36097 ft | 429 kts | 334° |
| 2026-05-05 20:41 | 40.04011 | 14.26652 | 36112 ft | 430 kts | 334° |
| 2026-05-05 20:41 | 40.09561 | 14.23735 | 36107 ft | 430 kts | 334° |
| 2026-05-05 20:42 | 40.15072 | 14.20824 | 36111 ft | 430 kts | 333° |
| 2026-05-05 20:42 | 40.20664 | 14.17862 | 36096 ft | 431 kts | 333° |
| 2026-05-05 20:43 | 40.26224 | 14.14905 | 36109 ft | 432 kts | 333° |
| 2026-05-05 20:43 | 40.31797 | 14.11946 | 36109 ft | 432 kts | 333° |
| 2026-05-05 20:44 | 40.37331 | 14.09002 | 36100 ft | 432 kts | 333° |
| 2026-05-05 20:44 | 40.42893 | 14.06036 | 36102 ft | 432 kts | 333° |
| 2026-05-05 20:45 | 40.51237 | 14.01574 | 36116 ft | 431 kts | 333° |
| 2026-05-05 20:45 | 40.56793 | 13.98593 | 36110 ft | 431 kts | 333° |
| 2026-05-05 20:46 | 40.62349 | 13.95608 | 36101 ft | 431 kts | 333° |
| 2026-05-05 20:46 | 40.67897 | 13.92618 | 36102 ft | 431 kts | 333° |
| 2026-05-05 20:47 | 40.73447 | 13.89630 | 36124 ft | 431 kts | 333° |
| 2026-05-05 20:47 | 40.78996 | 13.86633 | 36101 ft | 431 kts | 333° |
| 2026-05-05 20:48 | 40.84551 | 13.83628 | 36102 ft | 431 kts | 333° |
| 2026-05-05 20:48 | 40.90104 | 13.80606 | 36100 ft | 432 kts | 333° |
| 2026-05-05 20:49 | 40.95675 | 13.77574 | 36124 ft | 433 kts | 333° |
| 2026-05-05 20:49 | 41.01246 | 13.74553 | 36113 ft | 433 kts | 333° |
| 2026-05-05 20:50 | 41.06814 | 13.71525 | 36111 ft | 432 kts | 333° |
| 2026-05-05 20:50 | 41.12369 | 13.68501 | 36106 ft | 432 kts | 333° |
| 2026-05-05 20:51 | 41.17928 | 13.65468 | 36123 ft | 433 kts | 333° |
| 2026-05-05 20:51 | 41.23509 | 13.62409 | 36123 ft | 434 kts | 332° |
| 2026-05-05 20:52 | 41.29083 | 13.59353 | 36126 ft | 432 kts | 332° |
| 2026-05-05 20:52 | 41.34629 | 13.56295 | 36123 ft | 431 kts | 332° |
| 2026-05-05 20:53 | 41.40164 | 13.53242 | 36138 ft | 430 kts | 332° |
| 2026-05-05 20:53 | 41.45687 | 13.50192 | 36124 ft | 430 kts | 332° |
| 2026-05-05 20:54 | 41.51213 | 13.47136 | 36121 ft | 429 kts | 332° |
| 2026-05-05 20:54 | 41.56684 | 13.44108 | 36113 ft | 430 kts | 332° |
| 2026-05-05 20:55 | 41.62206 | 13.41042 | 36123 ft | 430 kts | 332° |
| 2026-05-05 20:55 | 41.67729 | 13.37971 | 36118 ft | 429 kts | 332° |
| 2026-05-05 20:56 | 41.73242 | 13.34900 | 36115 ft | 429 kts | 332° |
| 2026-05-05 20:56 | 41.78885 | 13.32172 | 36114 ft | 432 kts | 336° |
| 2026-05-05 20:57 | 41.84641 | 13.29783 | 36129 ft | 433 kts | 337° |
| 2026-05-05 20:57 | 41.90383 | 13.27394 | 36124 ft | 432 kts | 336° |
| 2026-05-05 20:58 | 41.96096 | 13.24926 | 36093 ft | 431 kts | 335° |
| 2026-05-05 20:58 | 42.01786 | 13.22378 | 36093 ft | 431 kts | 335° |
| 2026-05-05 20:59 | 42.07477 | 13.19833 | 36091 ft | 430 kts | 335° |
| 2026-05-05 20:59 | 42.13161 | 13.17326 | 36093 ft | 431 kts | 335° |
| 2026-05-05 21:00 | 42.18819 | 13.14828 | 36094 ft | 431 kts | 335° |
| 2026-05-05 21:00 | 42.24509 | 13.12292 | 36098 ft | 431 kts | 335° |
| 2026-05-05 21:01 | 42.30214 | 13.09759 | 36090 ft | 432 kts | 335° |
| 2026-05-05 21:01 | 42.35929 | 13.07217 | 36081 ft | 433 kts | 335° |
| 2026-05-05 21:02 | 42.41513 | 13.04302 | 36071 ft | 426 kts | 326° |
| 2026-05-05 21:02 | 42.46811 | 13.00704 | 36070 ft | 427 kts | 327° |
| 2026-05-05 21:03 | 42.52115 | 12.97117 | 36068 ft | 425 kts | 326° |
| 2026-05-05 21:03 | 42.57430 | 12.93519 | 36084 ft | 428 kts | 326° |
| 2026-05-05 21:04 | 42.62754 | 12.89900 | 36078 ft | 428 kts | 326° |
| 2026-05-05 21:04 | 42.68082 | 12.86290 | 36082 ft | 428 kts | 326° |
| 2026-05-05 21:05 | 42.73417 | 12.82664 | 36074 ft | 428 kts | 326° |
| 2026-05-05 21:05 | 42.78662 | 12.79088 | 36076 ft | 428 kts | 326° |
| 2026-05-05 21:06 | 42.84020 | 12.75420 | 36065 ft | 428 kts | 326° |
| 2026-05-05 21:06 | 42.89350 | 12.71758 | 36058 ft | 429 kts | 326° |
| 2026-05-05 21:07 | 42.94652 | 12.68114 | 36065 ft | 430 kts | 326° |
| 2026-05-05 21:07 | 42.99992 | 12.64440 | 36062 ft | 430 kts | 326° |
| 2026-05-05 21:08 | 43.05390 | 12.60855 | 36057 ft | 437 kts | 334° |
| 2026-05-05 21:08 | 43.11456 | 12.59152 | 36065 ft | 448 kts | 342° |
| 2026-05-05 21:09 | 43.17604 | 12.57705 | 36083 ft | 449 kts | 343° |
| 2026-05-05 21:09 | 43.23766 | 12.56273 | 36071 ft | 449 kts | 343° |
| 2026-05-05 21:10 | 43.29924 | 12.54821 | 36063 ft | 449 kts | 343° |
| 2026-05-05 21:10 | 43.36078 | 12.53359 | 36080 ft | 449 kts | 343° |
| 2026-05-05 21:11 | 43.42236 | 12.51886 | 35831 ft | 448 kts | 343° |
| 2026-05-05 21:11 | 43.45305 | 12.51147 | 35578 ft | 448 kts | 342° |
| 2026-05-05 21:11 | 43.48374 | 12.50408 | 35322 ft | 449 kts | 342° |
| 2026-05-05 21:12 | 43.51454 | 12.49671 | 35081 ft | 450 kts | 342° |
| 2026-05-05 21:12 | 43.54538 | 12.48931 | 34839 ft | 449 kts | 342° |
| 2026-05-05 21:12 | 43.57615 | 12.48193 | 34574 ft | 448 kts | 342° |
| 2026-05-05 21:12 | 43.60681 | 12.47463 | 34080 ft | 446 kts | 342° |
| 2026-05-05 21:13 | 43.63731 | 12.46737 | 33540 ft | 444 kts | 342° |
| 2026-05-05 21:13 | 43.66760 | 12.46018 | 33054 ft | 440 kts | 342° |
| 2026-05-05 21:13 | 43.69768 | 12.45298 | 32556 ft | 437 kts | 342° |
| 2026-05-05 21:13 | 43.72710 | 12.44590 | 32060 ft | 434 kts | 342° |
| 2026-05-05 21:14 | 43.75674 | 12.43874 | 31583 ft | 430 kts | 343° |
| 2026-05-05 21:14 | 43.78616 | 12.43160 | 31074 ft | 428 kts | 343° |
| 2026-05-05 21:14 | 43.81538 | 12.42449 | 30593 ft | 426 kts | 343° |
| 2026-05-05 21:14 | 43.84451 | 12.41742 | 30109 ft | 424 kts | 343° |
| 2026-05-05 21:15 | 43.87349 | 12.41040 | 29582 ft | 421 kts | 344° |
| 2026-05-05 21:15 | 43.90222 | 12.40348 | 29129 ft | 418 kts | 343° |
| 2026-05-05 21:15 | 43.93078 | 12.39654 | 28657 ft | 414 kts | 344° |
| 2026-05-05 21:15 | 43.95900 | 12.38968 | 28203 ft | 410 kts | 344° |
| 2026-05-05 21:16 | 43.98707 | 12.38288 | 27748 ft | 407 kts | 344° |
| 2026-05-05 21:16 | 44.01476 | 12.37606 | 27333 ft | 403 kts | 344° |
| 2026-05-05 21:16 | 44.04235 | 12.36932 | 26906 ft | 401 kts | 345° |
| 2026-05-05 21:16 | 44.06982 | 12.36267 | 26489 ft | 399 kts | 344° |
| 2026-05-05 21:17 | 44.09716 | 12.35607 | 26074 ft | 398 kts | 345° |
| 2026-05-05 21:17 | 44.12438 | 12.34946 | 25653 ft | 396 kts | 345° |
| 2026-05-05 21:17 | 44.15146 | 12.34281 | 25244 ft | 394 kts | 345° |
| 2026-05-05 21:17 | 44.17839 | 12.33618 | 24831 ft | 392 kts | 345° |
| 2026-05-05 21:18 | 44.20519 | 12.32958 | 24409 ft | 391 kts | 346° |
| 2026-05-05 21:18 | 44.23193 | 12.32301 | 23981 ft | 390 kts | 346° |
| 2026-05-05 21:18 | 44.25861 | 12.31647 | 23540 ft | 388 kts | 346° |
| 2026-05-05 21:18 | 44.28515 | 12.30996 | 23065 ft | 386 kts | 346° |
| 2026-05-05 21:19 | 44.31154 | 12.30345 | 22605 ft | 383 kts | 346° |
| 2026-05-05 21:19 | 44.33767 | 12.29703 | 22174 ft | 379 kts | 345° |
| 2026-05-05 21:19 | 44.36355 | 12.29069 | 21719 ft | 377 kts | 346° |
| 2026-05-05 21:19 | 44.38930 | 12.28436 | 21275 ft | 374 kts | 346° |
| 2026-05-05 21:20 | 44.41484 | 12.27808 | 20826 ft | 372 kts | 346° |
| 2026-05-05 21:20 | 44.44029 | 12.27180 | 20381 ft | 370 kts | 346° |
| 2026-05-05 21:20 | 44.46552 | 12.26554 | 19938 ft | 368 kts | 345° |
| 2026-05-05 21:20 | 44.49066 | 12.25931 | 19497 ft | 366 kts | 346° |
| 2026-05-05 21:21 | 44.50725 | 12.25523 | 19207 ft | 365 kts | 346° |
| 2026-05-05 21:21 | 44.53219 | 12.24908 | 18766 ft | 363 kts | 346° |
| 2026-05-05 21:21 | 44.55701 | 12.24295 | 18326 ft | 361 kts | 345° |
| 2026-05-05 21:21 | 44.58964 | 12.23480 | 17690 ft | 358 kts | 345° |
| 2026-05-05 21:22 | 44.60615 | 12.23068 | 17412 ft | 355 kts | 345° |
| 2026-05-05 21:22 | 44.63041 | 12.22466 | 16965 ft | 352 kts | 345° |
| 2026-05-05 21:22 | 44.65444 | 12.21866 | 16552 ft | 349 kts | 345° |
| 2026-05-05 21:22 | 44.67825 | 12.21271 | 16126 ft | 347 kts | 345° |
| 2026-05-05 21:23 | 44.70193 | 12.20684 | 15706 ft | 344 kts | 345° |
| 2026-05-05 21:23 | 44.72476 | 12.20120 | 15296 ft | 342 kts | 345° |
| 2026-05-05 21:23 | 44.74813 | 12.19544 | 14884 ft | 341 kts | 345° |
| 2026-05-05 21:23 | 44.77141 | 12.18962 | 14463 ft | 339 kts | 345° |
| 2026-05-05 21:24 | 44.79459 | 12.18383 | 14043 ft | 337 kts | 345° |
| 2026-05-05 21:24 | 44.81758 | 12.17807 | 13616 ft | 335 kts | 345° |
| 2026-05-05 21:24 | 44.84047 | 12.17232 | 13188 ft | 333 kts | 345° |
| 2026-05-05 21:24 | 44.86317 | 12.16660 | 12774 ft | 330 kts | 345° |
| 2026-05-05 21:25 | 44.88568 | 12.16091 | 12387 ft | 327 kts | 345° |
| 2026-05-05 21:25 | 44.90859 | 12.15508 | 11977 ft | 350 kts | 346° |
| 2026-05-05 21:25 | 44.93301 | 12.14883 | 11534 ft | 361 kts | 346° |
| 2026-05-05 21:25 | 44.95741 | 12.14264 | 11102 ft | 361 kts | 346° |
| 2026-05-05 21:26 | 44.98208 | 12.13644 | 10663 ft | 358 kts | 346° |
| 2026-05-05 21:26 | 45.00610 | 12.13046 | 10508 ft | 343 kts | 346° |
| 2026-05-05 21:26 | 45.02917 | 12.12476 | 10346 ft | 330 kts | 346° |
| 2026-05-05 21:26 | 45.05132 | 12.11926 | 10238 ft | 317 kts | 346° |
| 2026-05-05 21:27 | 45.07262 | 12.11393 | 10080 ft | 307 kts | 346° |
| 2026-05-05 21:27 | 45.09349 | 12.10867 | 9755 ft | 303 kts | 346° |
| 2026-05-05 21:27 | 45.11414 | 12.10344 | 9234 ft | 299 kts | 346° |
| 2026-05-05 21:27 | 45.13449 | 12.09830 | 8545 ft | 295 kts | 347° |
| 2026-05-05 21:28 | 45.15454 | 12.09323 | 7861 ft | 291 kts | 347° |
| 2026-05-05 21:28 | 45.17441 | 12.08817 | 7251 ft | 287 kts | 347° |
| 2026-05-05 21:28 | 45.19394 | 12.08318 | 6643 ft | 283 kts | 347° |
| 2026-05-05 21:28 | 45.21320 | 12.07826 | 6017 ft | 280 kts | 347° |
| 2026-05-05 21:29 | 45.23227 | 12.07339 | 5357 ft | 277 kts | 347° |
| 2026-05-05 21:29 | 45.25110 | 12.06864 | 4805 ft | 271 kts | 349° |
| 2026-05-05 21:29 | 45.26922 | 12.06879 | 4678 ft | 251 kts | 8° |
| 2026-05-05 21:29 | 45.28541 | 12.07590 | 4613 ft | 241 kts | 24° |
| 2026-05-05 21:30 | 45.29939 | 12.08880 | 4515 ft | 240 kts | 41° |
| 2026-05-05 21:30 | 45.31180 | 12.10460 | 4400 ft | 240 kts | 41° |
| 2026-05-05 21:30 | 45.32390 | 12.12000 | 4321 ft | 239 kts | 41° |
| 2026-05-05 21:30 | 45.33628 | 12.13577 | 4129 ft | 238 kts | 41° |
| 2026-05-05 21:31 | 45.34856 | 12.15143 | 3842 ft | 236 kts | 41° |
| 2026-05-05 21:31 | 45.36073 | 12.16694 | 3532 ft | 234 kts | 41° |
| 2026-05-05 21:31 | 45.37281 | 12.18236 | 3223 ft | 233 kts | 42° |
| 2026-05-05 21:31 | 45.38469 | 12.19753 | 2918 ft | 228 kts | 43° |
| 2026-05-05 21:32 | 45.39637 | 12.21245 | 2598 ft | 221 kts | 43° |
| 2026-05-05 21:32 | 45.40749 | 12.22666 | 2344 ft | 209 kts | 43° |
| 2026-05-05 21:32 | 45.41800 | 12.24011 | 2064 ft | 196 kts | 43° |
| 2026-05-05 21:32 | 45.42763 | 12.25241 | 1810 ft | 175 kts | 43° |
| 2026-05-05 21:33 | 45.43622 | 12.26340 | 1567 ft | 159 kts | 45° |
| 2026-05-05 21:33 | 45.44421 | 12.27365 | 1361 ft | 152 kts | 44° |
| 2026-05-05 21:33 | 45.45194 | 12.28357 | 1160 ft | 149 kts | 44° |
| 2026-05-05 21:33 | 45.45959 | 12.29339 | 960 ft | 147 kts | 42° |
| 2026-05-05 21:34 | 45.46702 | 12.30290 | 771 ft | 146 kts | 42° |
| 2026-05-05 21:34 | 45.47447 | 12.31246 | 577 ft | 142 kts | 42° |
| 2026-05-05 21:34 | 45.48181 | 12.32186 | 382 ft | 141 kts | 40° |
| 2026-05-05 21:34 | 45.48911 | 12.33103 | 231 ft | 139 kts | 40° |
| 2026-05-05 21:35 | 45.49610 | 12.34053 | 66 ft | 138 kts | 37° |
| 2026-05-05 21:35 | 45.50303 | 12.34907 | 15 ft | 115 kts | 41° |
| 2026-05-05 21:35 | 45.50764 | 12.35510 | 17 ft | 65 kts | 42° |
| 2026-05-05 21:35 | 45.50995 | 12.35791 | 14 ft | 33 kts | 30° |
| 2026-05-05 21:36 | 45.51171 | 12.35877 | 14 ft | 22 kts | 13° |
| 2026-05-05 21:36 | 45.51271 | 12.35854 | 14 ft | 14 kts | 289° |
| 2026-05-05 21:36 | 45.51219 | 12.35743 | 16 ft | 14 kts | 225° |
| 2026-05-05 21:36 | 45.51143 | 12.35648 | 16 ft | 15 kts | 221° |
| 2026-05-05 21:37 | 45.51064 | 12.35547 | 17 ft | 16 kts | 222° |
| 2026-05-05 21:37 | 45.50994 | 12.35424 | 18 ft | 16 kts | 247° |
| 2026-05-05 21:37 | 45.50965 | 12.35252 | 17 ft | 20 kts | 255° |
| 2026-05-05 21:37 | 45.50873 | 12.35096 | 16 ft | 22 kts | 222° |
| 2026-05-05 21:38 | 45.50757 | 12.34950 | 16 ft | 23 kts | 221° |
| 2026-05-05 21:38 | 45.50635 | 12.34795 | 16 ft | 24 kts | 222° |
| 2026-05-05 21:38 | 45.50508 | 12.34631 | 16 ft | 25 kts | 223° |
| 2026-05-05 21:38 | 45.50379 | 12.34462 | 16 ft | 26 kts | 222° |
| 2026-05-05 21:39 | 45.50262 | 12.34311 | 17 ft | 17 kts | 222° |
| 2026-05-05 21:39 | 45.50175 | 12.34199 | 16 ft | 16 kts | 222° |
| 2026-05-05 21:39 | 45.50112 | 12.34105 | 17 ft | 10 kts | 259° |
| 2026-05-05 21:39 | 45.50138 | 12.34045 | 17 ft | 6 kts | 313° |
| 2026-05-05 21:40 | 45.50145 | 12.34033 | 16 ft | 2 kts | 313° |
| 2026-05-05 21:40 | 45.50148 | 12.34029 | 16 ft | 0 kts | 313° |